createdAt,value
2019-03-02T00:01:38.032Z,5.50
2019-03-02T00:04:09.606Z,6.40
2019-03-02T00:06:35.752Z,8.33
2019-03-02T00:09:06.088Z,6.97
2019-03-02T00:11:33.689Z,8.70
2019-03-02T00:14:01.440Z,11.67
2019-03-02T00:16:29.100Z,7.27
2019-03-02T00:18:56.742Z,8.80
2019-03-02T00:21:27.673Z,6.60
2019-03-02T00:23:54.338Z,7.70
2019-03-02T00:26:22.899Z,9.97
2019-03-02T00:28:50.529Z,6.30
2019-03-02T00:31:18.148Z,8.27
2019-03-02T00:33:45.740Z,5.63
2019-03-02T00:36:15.942Z,10.77
2019-03-02T00:38:43.470Z,8.47
2019-03-02T00:41:11.981Z,8.40
2019-03-02T00:43:39.530Z,7.10
2019-03-02T00:46:07.133Z,7.87
2019-03-02T00:48:34.790Z,8.60
2019-03-02T00:51:02.399Z,5.07
2019-03-02T00:53:31.851Z,11.03
2019-03-02T00:55:59.518Z,4.87
2019-03-02T00:58:28.971Z,8.13
2019-03-02T01:00:56.531Z,5.20
2019-03-02T01:03:24.092Z,6.80
2019-03-02T01:05:51.647Z,7.50
2019-03-02T01:08:19.320Z,9.80
2019-03-02T01:10:46.917Z,6.27
2019-03-02T01:13:16.767Z,7.80
2019-03-02T01:15:44.076Z,6.17
2019-03-02T01:18:12.483Z,7.10
2019-03-02T01:20:40.064Z,10.17
2019-03-02T01:23:07.853Z,4.93
2019-03-02T01:25:35.478Z,8.17
2019-03-02T01:28:03.048Z,9.00
2019-03-02T01:30:30.977Z,9.27
2019-03-02T01:32:58.595Z,11.20
2019-03-02T01:35:26.205Z,10.43
2019-03-02T01:37:53.835Z,7.87
2019-03-02T01:40:21.462Z,9.47
2019-03-02T01:42:49.048Z,8.17
2019-03-02T01:45:16.835Z,8.23
2019-03-02T01:47:50.811Z,11.50
2019-03-02T01:50:16.809Z,8.40
2019-03-02T01:52:44.446Z,7.63
2019-03-02T01:55:12.243Z,6.57
2019-03-02T01:57:39.849Z,7.20
2019-03-02T02:00:13.775Z,8.70
2019-03-02T02:02:40.843Z,8.60
2019-03-02T02:05:08.490Z,9.67
2019-03-02T02:07:36.136Z,13.43
2019-03-02T02:10:07.236Z,8.93
2019-03-02T02:12:34.868Z,8.83
2019-03-02T02:15:02.472Z,7.60
2019-03-02T02:17:30.096Z,8.73
2019-03-02T02:19:57.661Z,4.97
2019-03-02T02:22:25.321Z,5.87
2019-03-02T02:24:52.943Z,5.80
2019-03-02T02:27:22.510Z,10.33
2019-03-02T02:29:49.954Z,7.60
2019-03-02T02:32:19.252Z,6.57
2019-03-02T02:34:46.995Z,8.43
2019-03-02T02:37:14.669Z,7.53
2019-03-02T02:39:42.312Z,6.53
2019-03-02T02:42:09.948Z,4.30
2019-03-02T02:44:39.038Z,3.90
2019-03-02T02:47:11.615Z,4.77
2019-03-02T02:49:36.328Z,5.73
2019-03-02T02:52:03.992Z,5.40
2019-03-02T02:54:31.563Z,5.83
2019-03-02T02:57:00.545Z,4.40
2019-03-02T02:59:28.283Z,4.83
2019-03-02T03:01:55.859Z,3.87
2019-03-02T03:04:23.488Z,3.00
2019-03-02T03:06:51.134Z,4.97
2019-03-02T03:09:45.387Z,3.70
2019-03-02T03:12:11.168Z,3.90
2019-03-02T03:14:38.817Z,3.77
2019-03-02T03:17:06.495Z,3.30
2019-03-02T03:19:34.164Z,4.63
2019-03-02T03:22:02.393Z,4.30
2019-03-02T03:24:31.203Z,6.07
2019-03-02T03:26:58.803Z,5.27
2019-03-02T03:29:26.383Z,5.13
2019-03-02T03:31:54.047Z,5.30
2019-03-02T03:34:28.758Z,5.97
2019-03-02T03:36:51.086Z,4.50
2019-03-02T03:39:18.697Z,3.90
2019-03-02T03:41:46.345Z,4.10
2019-03-02T03:44:17.116Z,4.27
2019-03-02T03:46:43.434Z,5.17
2019-03-02T03:49:10.969Z,3.17
2019-03-02T03:51:38.613Z,3.10
2019-03-02T03:54:06.958Z,5.00
2019-03-02T03:56:37.895Z,3.17
2019-03-02T03:59:05.089Z,3.90
2019-03-02T04:01:32.692Z,3.13
2019-03-02T04:04:00.286Z,3.70
2019-03-02T04:06:29.158Z,4.97
2019-03-02T04:08:56.832Z,5.03
2019-03-02T04:11:24.561Z,4.13
2019-03-02T04:13:52.117Z,4.00
2019-03-02T04:16:20.708Z,5.00
2019-03-02T04:18:57.947Z,3.83
2019-03-02T04:21:30.677Z,4.03
2019-03-02T04:24:01.491Z,4.17
2019-03-02T04:26:31.692Z,5.83
2019-03-02T04:28:57.048Z,4.13
2019-03-02T04:31:24.691Z,5.13
2019-03-02T04:33:52.317Z,5.47
2019-03-02T04:36:19.939Z,7.10
2019-03-02T04:38:47.595Z,4.40
2019-03-02T04:41:15.171Z,7.77
2019-03-02T04:43:42.875Z,6.60
2019-03-02T04:46:11.751Z,7.47
2019-03-02T04:48:40.078Z,6.17
2019-03-02T04:51:07.700Z,6.40
2019-03-02T04:53:35.303Z,6.23
2019-03-02T04:56:02.946Z,6.33
2019-03-02T04:58:30.528Z,6.43
2019-03-02T05:00:58.185Z,6.20
2019-03-02T05:03:25.794Z,5.97
2019-03-02T05:05:53.434Z,7.07
2019-03-02T05:08:21.017Z,5.57
2019-03-02T05:10:48.633Z,9.67
2019-03-02T05:13:16.278Z,7.47
2019-03-02T05:15:43.947Z,6.83
2019-03-02T05:18:14.767Z,9.43
2019-03-02T05:20:42.132Z,5.37
2019-03-02T05:23:09.908Z,11.60
2019-03-02T05:25:37.524Z,6.13
2019-03-02T05:28:07.289Z,4.43
2019-03-02T05:30:34.544Z,8.00
2019-03-02T05:33:02.194Z,6.07
2019-03-02T05:35:29.804Z,4.97
2019-03-02T05:37:57.397Z,6.97
2019-03-02T05:40:27.790Z,4.23
2019-03-02T05:42:54.409Z,5.40
2019-03-02T05:45:23.850Z,6.03
2019-03-02T05:47:51.433Z,6.10
2019-03-02T05:50:19.017Z,5.37
2019-03-02T05:52:46.639Z,6.13
2019-03-02T05:55:18.069Z,6.27
2019-03-02T05:57:43.738Z,5.60
2019-03-02T06:00:11.982Z,7.10
2019-03-02T06:02:39.589Z,5.73
2019-03-02T06:05:07.383Z,7.53
2019-03-02T06:07:34.972Z,6.43
2019-03-02T06:10:02.610Z,5.83
2019-03-02T06:12:30.152Z,5.97
2019-03-02T06:14:57.823Z,6.57
2019-03-02T06:17:25.377Z,7.03
2019-03-02T06:19:55.805Z,6.70
2019-03-02T06:22:22.517Z,5.47
2019-03-02T06:24:50.122Z,5.97
2019-03-02T06:27:17.731Z,7.77
2019-03-02T06:29:45.327Z,8.30
2019-03-02T06:32:12.971Z,7.53
2019-03-02T06:34:40.567Z,6.47
2019-03-02T06:37:08.211Z,6.47
2019-03-02T06:39:35.780Z,7.47
2019-03-02T06:42:06.132Z,7.50
2019-03-02T06:44:34.130Z,7.57
2019-03-02T06:47:02.343Z,8.53
2019-03-02T06:49:30.042Z,7.47
2019-03-02T06:51:57.675Z,6.87
2019-03-02T06:54:25.332Z,7.23
2019-03-02T06:56:57.762Z,7.17
2019-03-02T06:59:22.363Z,7.73
2019-03-02T07:01:49.984Z,5.43
2019-03-02T07:04:18.074Z,6.40
2019-03-02T07:06:47.639Z,6.80
2019-03-02T07:09:15.370Z,6.90
2019-03-02T07:11:42.915Z,7.77
2019-03-02T07:14:10.594Z,9.67
2019-03-02T07:16:38.221Z,9.57
2019-03-02T07:19:27.626Z,9.60
2019-03-02T07:21:57.524Z,9.83
2019-03-02T07:24:25.911Z,16.40
2019-03-02T07:26:54.531Z,13.83
2019-03-02T07:29:22.993Z,10.33
2019-03-02T07:31:50.571Z,11.77
2019-03-02T07:34:18.202Z,13.37
2019-03-02T07:36:45.781Z,11.50
2019-03-02T07:39:13.351Z,12.27
2019-03-02T07:41:41.009Z,14.57
2019-03-02T07:44:08.676Z,14.80
2019-03-02T07:46:36.291Z,17.33
2019-03-02T07:49:03.878Z,17.03
2019-03-02T07:51:33.816Z,13.77
2019-03-02T07:54:02.157Z,18.13
2019-03-02T07:56:34.906Z,16.23
2019-03-02T07:59:05.800Z,21.50
2019-03-02T08:01:34.048Z,21.70
2019-03-02T08:04:01.677Z,23.23
2019-03-02T08:06:29.308Z,21.27
2019-03-02T08:08:56.964Z,22.90
2019-03-02T08:11:24.634Z,21.53
2019-03-02T08:13:52.244Z,22.53
2019-03-02T08:16:19.905Z,18.47
2019-03-02T08:18:47.481Z,22.40
2019-03-02T08:21:15.045Z,23.60
2019-03-02T08:23:42.652Z,24.20
2019-03-02T08:26:10.242Z,21.37
2019-03-02T08:28:37.865Z,23.77
2019-03-02T08:31:08.602Z,25.40
2019-03-02T08:33:34.919Z,21.00
2019-03-02T08:36:02.580Z,20.30
2019-03-02T08:38:30.201Z,23.67
2019-03-02T08:41:00.319Z,21.93
2019-03-02T08:43:27.330Z,24.10
2019-03-02T08:45:54.916Z,23.10
2019-03-02T08:48:22.515Z,23.23
2019-03-02T08:50:53.040Z,24.03
2019-03-02T08:53:19.622Z,25.00
2019-03-02T08:55:47.263Z,20.53
2019-03-02T08:58:14.890Z,22.90
2019-03-02T09:00:43.242Z,18.70
2019-03-02T09:03:10.940Z,19.97
2019-03-02T09:05:44.196Z,18.93
2019-03-02T09:08:07.973Z,21.67
2019-03-02T09:10:36.989Z,19.27
2019-03-02T09:13:04.705Z,19.83
2019-03-02T09:15:32.378Z,18.63
2019-03-02T09:18:00.108Z,19.13
2019-03-02T09:20:27.779Z,16.17
2019-03-02T09:22:56.319Z,18.60
2019-03-02T09:25:27.866Z,17.27
2019-03-02T09:27:54.736Z,17.73
2019-03-02T09:30:22.559Z,16.33
2019-03-02T09:32:51.217Z,15.73
2019-03-02T09:35:19.852Z,16.30
2019-03-02T09:37:47.517Z,16.13
2019-03-02T09:40:15.183Z,16.90
2019-03-02T09:42:42.757Z,17.93
2019-03-02T09:45:12.725Z,15.73
2019-03-02T09:47:43.776Z,16.83
2019-03-02T09:50:13.563Z,22.13
2019-03-02T09:52:40.759Z,11.50
2019-03-02T09:55:09.052Z,12.63
2019-03-02T09:57:36.724Z,13.20
2019-03-02T10:00:10.663Z,10.77
2019-03-02T10:02:38.648Z,8.97
2019-03-02T10:05:06.453Z,8.97
2019-03-02T10:07:34.514Z,11.77
2019-03-02T10:10:04.643Z,9.40
2019-03-02T10:12:32.252Z,7.97
2019-03-02T10:15:00.862Z,10.57
2019-03-02T10:17:30.520Z,10.23
2019-03-02T10:20:00.975Z,8.50
2019-03-02T10:22:27.472Z,8.03
2019-03-02T10:24:55.068Z,11.60
2019-03-02T10:27:22.697Z,8.87
2019-03-02T10:29:50.307Z,9.43
2019-03-02T10:32:19.557Z,9.70
2019-03-02T10:34:47.148Z,10.30
2019-03-02T10:37:14.769Z,11.03
2019-03-02T10:39:42.407Z,9.67
2019-03-02T10:42:09.999Z,11.87
2019-03-02T10:44:38.689Z,11.57
2019-03-02T10:47:07.171Z,12.30
2019-03-02T10:49:35.549Z,12.87
2019-03-02T10:52:03.231Z,12.23
2019-03-02T10:54:31.632Z,13.77
2019-03-02T10:57:01.005Z,13.53
2019-03-02T10:59:28.881Z,14.27
2019-03-02T11:01:56.521Z,14.37
2019-03-02T11:04:44.034Z,14.97
2019-03-02T11:07:35.806Z,14.53
2019-03-02T11:10:22.342Z,13.97
2019-03-02T11:13:08.088Z,15.17
2019-03-02T11:15:53.443Z,18.23
2019-03-02T11:18:46.551Z,16.60
2019-03-02T11:21:36.656Z,18.13
2019-03-02T11:24:26.401Z,18.07
2019-03-02T11:27:02.302Z,19.80
2019-03-02T11:29:52.196Z,21.03
2019-03-02T11:32:28.011Z,18.37
2019-03-02T11:35:06.778Z,18.67
2019-03-02T11:38:09.472Z,17.70
2019-03-02T11:41:01.075Z,18.23
2019-03-02T11:43:44.432Z,17.17
2019-03-02T11:46:21.205Z,20.67
2019-03-02T11:49:30.382Z,17.47
2019-03-02T11:52:10.360Z,16.23
2019-03-02T11:54:57.116Z,16.77
2019-03-02T11:57:47.663Z,18.10
2019-03-02T12:00:25.060Z,15.57
2019-03-02T12:03:02.565Z,17.30
2019-03-02T12:05:57.213Z,14.87
2019-03-02T12:08:42.686Z,16.30
2019-03-02T12:11:18.817Z,17.40
2019-03-02T12:14:09.972Z,18.00
2019-03-02T12:17:03.866Z,16.13
2019-03-02T12:19:54.471Z,16.30
2019-03-02T12:22:50.651Z,15.77
2019-03-02T12:25:43.410Z,17.27
2019-03-02T12:28:29.236Z,17.23
2019-03-02T12:31:14.941Z,17.47
2019-03-02T12:34:05.086Z,16.93
2019-03-02T12:36:56.536Z,17.63
2019-03-02T12:39:50.312Z,16.87
2019-03-02T12:42:26.614Z,18.33
2019-03-02T12:45:21.766Z,19.30
2019-03-02T12:48:07.461Z,19.23
2019-03-02T12:50:46.992Z,20.47
2019-03-02T12:53:29.964Z,19.63
2019-03-02T12:56:20.018Z,22.23
2019-03-02T12:58:55.367Z,24.90
2019-03-02T13:01:33.967Z,22.67
2019-03-02T13:04:17.476Z,23.53
2019-03-02T13:07:02.966Z,23.37
2019-03-02T13:09:59.044Z,27.70
2019-03-02T13:12:33.929Z,28.63
2019-03-02T13:15:20.963Z,34.43
2019-03-02T13:17:58.835Z,31.70
2019-03-02T13:20:45.878Z,33.60
2019-03-02T13:23:38.892Z,34.07
2019-03-02T13:26:36.912Z,31.87
2019-03-02T13:29:15.978Z,32.83
2019-03-02T13:31:52.396Z,31.43
2019-03-02T13:34:57.673Z,33.10
2019-03-02T13:37:44.725Z,30.43
2019-03-02T13:40:33.588Z,33.70
2019-03-02T13:43:17.721Z,35.43
2019-03-02T13:46:01.899Z,31.70
2019-03-02T13:48:50.264Z,28.63
2019-03-02T13:51:43.457Z,30.27
2019-03-02T13:54:20.347Z,32.03
2019-03-02T13:57:05.931Z,39.13
2019-03-02T14:00:11.292Z,37.33
2019-03-02T14:03:10.721Z,32.10
2019-03-02T14:05:59.391Z,34.67
2019-03-02T14:08:45.067Z,29.83
2019-03-02T14:11:39.673Z,31.37
2019-03-02T14:14:21.636Z,28.43
2019-03-02T14:17:11.935Z,28.67
2019-03-02T14:19:48.522Z,33.90
2019-03-02T14:22:33.548Z,25.07
2019-03-02T14:25:19.148Z,32.93
2019-03-02T14:28:00.613Z,28.43
2019-03-02T14:30:35.477Z,33.03
2019-03-02T14:33:14.397Z,31.57
2019-03-02T14:36:19.561Z,30.87
2019-03-02T14:39:24.860Z,28.67
2019-03-02T14:42:04.025Z,28.40
2019-03-02T14:44:50.877Z,28.33
2019-03-02T14:47:46.793Z,30.73
2019-03-02T14:50:43.971Z,29.33
2019-03-02T14:53:21.917Z,31.07
2019-03-02T14:56:13.856Z,32.27
2019-03-02T14:59:00.578Z,29.07
2019-03-02T15:01:47.697Z,24.67
2019-03-02T15:04:25.132Z,29.90
2019-03-02T15:07:10.872Z,27.90
2019-03-02T15:10:10.026Z,26.27
2019-03-02T15:12:55.517Z,27.40
2019-03-02T15:15:42.605Z,29.97
2019-03-02T15:18:29.148Z,26.90
2019-03-02T15:21:12.942Z,28.93
2019-03-02T15:23:49.152Z,26.60
2019-03-02T15:26:28.421Z,26.83
2019-03-02T15:29:21.630Z,25.07
2019-03-02T15:32:07.617Z,26.80
2019-03-02T15:34:49.429Z,27.97
2019-03-02T15:37:24.225Z,27.80
2019-03-02T15:40:10.671Z,29.87
2019-03-02T15:42:49.092Z,30.33
2019-03-02T15:45:36.163Z,26.70
2019-03-02T15:48:28.893Z,24.97
2019-03-02T15:51:03.113Z,26.60
2019-03-02T15:53:39.446Z,30.10
2019-03-02T15:56:16.127Z,28.13
2019-03-02T15:59:18.283Z,28.73
2019-03-02T16:02:08.091Z,27.03
2019-03-02T16:04:53.460Z,25.30
2019-03-02T16:07:39.565Z,23.87
2019-03-02T16:10:27.473Z,24.37
2019-03-02T16:13:09.356Z,22.97
2019-03-02T16:16:14.575Z,25.70
2019-03-02T16:18:53.337Z,21.67
2019-03-02T16:21:38.908Z,29.93
2019-03-02T16:24:25.059Z,24.50
2019-03-02T16:27:10.816Z,22.70
2019-03-02T16:29:56.811Z,19.23
2019-03-02T16:32:43.968Z,23.67
2019-03-02T16:35:39.763Z,27.57
2019-03-02T16:38:20.038Z,22.27
2019-03-02T16:40:59.705Z,25.07
2019-03-02T16:43:46.791Z,28.73
2019-03-02T16:46:35.027Z,27.97
2019-03-02T16:49:36.846Z,35.20
2019-03-02T16:52:26.299Z,26.20
2019-03-02T16:55:22.480Z,24.90
2019-03-02T16:58:01.596Z,23.90
2019-03-02T17:00:48.513Z,25.93
2019-03-02T17:03:39.036Z,24.63
2019-03-02T17:06:26.945Z,25.33
2019-03-02T17:09:12.578Z,23.20
2019-03-02T17:11:56.947Z,23.30
2019-03-02T17:14:45.942Z,22.77
2019-03-02T17:17:24.479Z,24.57
2019-03-02T17:20:07.801Z,25.53
2019-03-02T17:22:50.571Z,25.27
2019-03-02T17:25:30.911Z,29.13
2019-03-02T17:28:25.247Z,26.27
2019-03-02T17:31:18.060Z,27.20
2019-03-02T17:34:11.038Z,27.83
2019-03-02T17:37:02.080Z,30.60
2019-03-02T17:39:47.652Z,31.07
2019-03-02T17:42:40.898Z,24.50
2019-03-02T17:45:31.818Z,25.07
2019-03-02T17:48:08.348Z,23.60
2019-03-02T17:50:58.664Z,23.33
2019-03-02T17:53:34.005Z,32.40
2019-03-02T17:56:24.191Z,27.93
2019-03-02T17:59:20.343Z,27.03
2019-03-02T18:01:57.791Z,24.80
2019-03-02T18:04:44.858Z,24.33
2019-03-02T18:07:23.021Z,28.93
2019-03-02T18:10:19.257Z,32.87
2019-03-02T18:13:07.169Z,29.03
2019-03-02T18:15:52.704Z,27.87
2019-03-02T18:18:20.298Z,24.40
2019-03-02T18:20:47.967Z,28.20
2019-03-02T18:23:18.932Z,28.20
2019-03-02T18:25:48.480Z,30.00
2019-03-02T18:28:15.615Z,24.43
2019-03-02T18:30:43.742Z,22.33
2019-03-02T18:33:34.227Z,24.30
2019-03-02T18:36:01.816Z,25.03
2019-03-02T18:38:29.532Z,23.70
2019-03-02T18:40:57.180Z,23.40
2019-03-02T18:43:24.783Z,23.90
2019-03-02T18:45:52.775Z,23.60
2019-03-02T18:48:51.884Z,20.37
2019-03-02T18:51:34.098Z,23.40
2019-03-02T18:54:13.556Z,23.63
2019-03-02T18:56:42.327Z,26.07
2019-03-02T18:59:09.895Z,23.77
2019-03-02T19:01:37.601Z,22.13
2019-03-02T19:04:05.654Z,26.70
2019-03-02T19:06:33.304Z,20.50
2019-03-02T19:09:00.910Z,24.37
2019-03-02T19:11:28.622Z,22.10
2019-03-02T19:13:59.533Z,23.63
2019-03-02T19:16:27.214Z,23.73
2019-03-02T19:18:54.804Z,24.37
2019-03-02T19:21:22.504Z,27.60
2019-03-02T19:23:50.131Z,24.40
2019-03-02T19:26:17.744Z,28.63
2019-03-02T19:28:45.389Z,27.00
2019-03-02T19:31:13.064Z,27.70
2019-03-02T19:33:40.667Z,23.17
2019-03-02T19:36:08.248Z,27.03
2019-03-02T19:38:35.939Z,24.57
2019-03-02T19:41:03.663Z,26.87
2019-03-02T19:43:31.328Z,24.50
2019-03-02T19:45:58.924Z,27.97
2019-03-02T19:48:27.126Z,27.00
2019-03-02T19:50:54.734Z,23.77
2019-03-02T19:53:22.350Z,24.37
2019-03-02T19:55:50.089Z,25.10
2019-03-02T19:58:17.644Z,24.40
2019-03-02T20:00:45.304Z,25.23
2019-03-02T20:03:13.025Z,25.73
2019-03-02T20:05:40.647Z,22.57
2019-03-02T20:08:08.212Z,23.97
2019-03-02T20:10:35.951Z,22.03
2019-03-02T20:13:03.617Z,25.70
2019-03-02T20:15:31.180Z,24.97
2019-03-02T20:17:58.824Z,24.27
2019-03-02T20:20:26.684Z,24.77
2019-03-02T20:22:54.275Z,25.60
2019-03-02T20:25:21.888Z,28.17
2019-03-02T20:27:49.589Z,23.47
2019-03-02T20:30:17.582Z,21.97
2019-03-02T20:32:45.239Z,24.07
2019-03-02T20:35:15.481Z,23.63
2019-03-02T20:37:43.340Z,24.80
2019-03-02T20:40:16.387Z,21.87
2019-03-02T20:42:43.980Z,24.83
2019-03-02T20:45:12.795Z,27.00
2019-03-02T20:47:41.252Z,22.10
2019-03-02T20:50:10.917Z,25.17
2019-03-02T20:52:38.563Z,26.37
2019-03-02T20:55:06.890Z,27.47
2019-03-02T20:57:34.461Z,26.63
2019-03-02T21:00:02.123Z,25.27
2019-03-02T21:02:29.720Z,27.37
2019-03-02T21:04:57.748Z,25.20
2019-03-02T21:07:25.353Z,28.67
2019-03-02T21:09:52.980Z,23.03
2019-03-02T21:12:20.571Z,23.87
2019-03-02T21:14:48.266Z,26.90
2019-03-02T21:17:15.882Z,24.97
2019-03-02T21:19:43.466Z,21.93
2019-03-02T21:22:11.108Z,22.83
2019-03-02T21:24:38.927Z,20.13
2019-03-02T21:27:06.675Z,23.27
2019-03-02T21:29:34.376Z,21.07
2019-03-02T21:32:01.937Z,15.90
2019-03-02T21:34:29.536Z,18.70
2019-03-02T21:36:57.263Z,16.10
2019-03-02T21:39:25.013Z,17.27
2019-03-02T21:41:52.609Z,20.07
2019-03-02T21:44:20.193Z,14.97
2019-03-02T21:46:47.876Z,17.63
2019-03-02T21:49:15.530Z,17.60
2019-03-02T21:51:43.285Z,16.73
2019-03-02T21:54:10.847Z,15.70
2019-03-02T21:56:38.411Z,16.40
2019-03-02T21:59:06.060Z,18.77
2019-03-02T22:01:33.701Z,16.57
2019-03-02T22:04:01.354Z,16.43
2019-03-02T22:06:28.959Z,18.97
2019-03-02T22:08:56.736Z,18.40
2019-03-02T22:11:24.364Z,21.60
2019-03-02T22:13:52.041Z,19.60
2019-03-02T22:16:19.641Z,19.10
2019-03-02T22:18:47.245Z,22.13
2019-03-02T22:21:14.886Z,18.27
2019-03-02T22:23:42.532Z,24.00
2019-03-02T22:26:10.179Z,22.10
2019-03-02T22:28:37.760Z,22.90
2019-03-02T22:31:05.315Z,22.77
2019-03-02T22:33:32.915Z,21.30
2019-03-02T22:36:00.562Z,28.70
2019-03-02T22:38:28.177Z,24.20
2019-03-02T22:40:55.851Z,24.57
2019-03-02T22:43:23.472Z,25.17
2019-03-02T22:45:51.057Z,24.97
2019-03-02T22:48:18.651Z,24.43
2019-03-02T22:50:46.867Z,23.53
2019-03-02T22:53:14.476Z,22.70
2019-03-02T22:55:42.461Z,22.47
2019-03-02T22:58:10.129Z,25.63
2019-03-02T23:01:19.820Z,23.43
2019-03-02T23:03:47.913Z,23.67
2019-03-02T23:06:15.555Z,18.50
2019-03-02T23:08:43.211Z,21.17
2019-03-02T23:11:10.860Z,21.30
2019-03-02T23:13:38.511Z,20.07
2019-03-02T23:16:06.112Z,18.67
2019-03-02T23:18:33.704Z,21.00
2019-03-02T23:21:01.336Z,17.23
2019-03-02T23:23:28.964Z,18.53
2019-03-02T23:25:56.756Z,14.87
2019-03-02T23:28:24.329Z,17.20
2019-03-02T23:30:51.929Z,17.83
2019-03-02T23:33:19.528Z,18.83
2019-03-02T23:35:47.154Z,18.40
2019-03-02T23:38:14.736Z,20.60
2019-03-02T23:40:42.378Z,18.37
2019-03-02T23:43:09.995Z,22.10
2019-03-02T23:45:37.756Z,23.10
2019-03-02T23:48:05.346Z,22.37
2019-03-02T23:50:32.942Z,23.73
2019-03-02T23:53:00.564Z,24.17
2019-03-02T23:55:28.111Z,23.67
2019-03-02T23:57:55.745Z,22.63
